ADDS METAR Data INFO
IDs: Format: Raw Decoded Include TAF

Data at: 1133 UTC 29 May 2017

KDHT 291053Z AUTO 18005KT 10SM FEW060 BKN100 OVC120 12/06 A3019 RMK AO2 SLP180 T01220061
KDHT 290953Z AUTO 29006KT 10SM BKN120 10/06 A3020 RMK AO2 SLP186 T01000056
KDHT 290853Z AUTO 32007KT 10SM CLR 09/05 A3021 RMK AO2 SLP190 T00940050 53005
KDHT 290753Z AUTO 00000KT 10SM CLR 11/04 A3020 RMK AO2 SLP184 T01110044
KDHT 290653Z AUTO 00000KT 10SM CLR 12/05 A3019 RMK AO2 SLP182 T01220050
KDHT 290553Z AUTO 00000KT 10SM CLR 15/03 A3019 RMK AO2 SLP180 T01500033 10244 20133 402560106 50005
KDHT 290453Z AUTO 14003KT 10SM CLR 14/04 A3020 RMK AO2 SLP185 T01390039
KDHT 290353Z AUTO 10003KT 10SM CLR 17/03 A3019 RMK AO2 SLP179 T01670033
KDHT 290253Z AUTO 09004KT 10SM CLR 18/03 A3018 RMK AO2 SLP175 T01780033 53002
KDHT 290153Z AUTO 04006KT 10SM CLR 20/03 A3017 RMK AO2 SLP173 T02000028
KDHT 290053Z AUTO 06008KT 10SM CLR 23/02 A3016 RMK AO2 SLP173 T02330017
KDHT 282353Z AUTO 02009KT 10SM CLR 24/01 A3017 RMK AO2 SLP176 T02390006 10256 20222 56012
KDHT 282253Z AUTO VRB05KT 10SM CLR 25/01 A3018 RMK AO2 SLP176 T02500011
KDHT 282153Z AUTO 36009KT 10SM CLR 25/01 A3019 RMK AO2 SLP179 T02500006
KDHT 282053Z AUTO 34010G15KT 10SM CLR 24/01 A3021 RMK AO2 SLP187 T02440011 56012
KDHT 281953Z AUTO 35011G18KT 10SM CLR 24/01 A3022 RMK AO2 SLP189 T02440011
KDHT 281853Z AUTO 36013G17KT 10SM CLR 24/01 A3023 RMK AO2 SLP195 T02390011
KDHT 281753Z AUTO 02006G14KT 10SM CLR 22/02 A3025 RMK AO2 SLP202 T02220022 10228 20106 50000
KDHT 281653Z AUTO 36012G20KT 10SM CLR 22/03 A3025 RMK AO2 SLP204 T02170028
KDHT 281553Z AUTO 02014KT 10SM CLR 21/03 A3026 RMK AO2 SLP207 T02060028
KDHT 281453Z AUTO 01016KT 10SM CLR 19/04 A3025 RMK AO2 SLP206 T01890044 51013
KDHT 281353Z AUTO 35015G23KT 10SM CLR 16/07 A3023 RMK AO2 SLP195 T01610067
KDHT 281253Z AUTO 34011KT 10SM CLR 12/07 A3022 RMK AO2 SLP191 T01220072
KDHT 281153Z AUTO 35007KT 10SM CLR 11/07 A3021 RMK AO2 SLP185 T01060072 10133 20106 53017
KDHT 281053Z AUTO 34009KT 10SM BKN080 12/07 A3018 RMK AO2 SLP173 T01170072
KDHT 280953Z AUTO 35012KT 10SM OVC085 13/07 A3016 RMK AO2 SLP165 T01330072
KDHT 280853Z AUTO 34014KT 10SM BKN080 12/07 A3015 RMK AO2 SLP165 T01220072 53003
KDHT 280753Z AUTO 34013KT 10SM OVC075 13/07 A3015 RMK AO2 SLP164 T01280072
KDHT 280653Z AUTO 35015KT 10SM CLR 13/08 A3014 RMK AO2 SLP163 T01280078
KDHT 280553Z AUTO 35015G22KT 10SM CLR 13/09 A3014 RMK AO2 SLP163 T01280089 10267 20128 402720089 51016
KDHT 280453Z AUTO 36017KT 10SM BKN075 OVC090 14/09 A3014 RMK AO2 PK WND 01033/0358 SLP165 T01390089
KDHT 280353Z AUTO 01025G34KT 10SM BKN070 13/09 A3012 RMK AO2 PK WND 36034/0324 SLP159 T01330094
KDHT 280253Z AUTO 36028G34KT 10SM BKN060 BKN075 14/09 A3009 RMK AO2 PK WND 01044/0206 SLP151 T01390089 53049
KDHT 280153Z AUTO 02018G27KT 10SM CLR 22/12 A3002 RMK AO2 PK WND 03027/0145 SLP117 T02170117
KDHT 280053Z AUTO 06013KT 10SM CLR 25/11 A2994 RMK AO2 LTG DSNT N AND NE SLP087 T02500111
KDHT 272353Z AUTO 08008KT 10SM CLR 27/09 A2993 RMK AO2 SLP088 T02670089 10272 20233 58014


Page loaded:  11:33 UTC  |   04:33 AM Pacific  |   05:33 AM Mountain  |   06:33 AM Central  |   07:33 AM Eastern

 

ADVISORIES

FORECASTS

FORECASTS

OBSERVATIONS

USER TOOLS

ABOUT US